sensor_id;sensor_type;location;lat;lon;timestamp;P1;durP1;ratioP1;P2;durP2;ratioP2
54929;SDS011;40833;53.238;6.576;2023-08-07T00:00:27;9.77;;;3.40;;
54929;SDS011;40833;53.238;6.576;2023-08-07T00:02:53;4.10;;;3.03;;
54929;SDS011;40833;53.238;6.576;2023-08-07T00:05:18;4.30;;;3.27;;
54929;SDS011;40833;53.238;6.576;2023-08-07T00:07:44;8.83;;;3.63;;
54929;SDS011;40833;53.238;6.576;2023-08-07T00:10:10;6.63;;;3.37;;
54929;SDS011;40833;53.238;6.576;2023-08-07T00:12:36;5.40;;;3.50;;
54929;SDS011;40833;53.238;6.576;2023-08-07T00:15:02;10.43;;;3.00;;
54929;SDS011;40833;53.238;6.576;2023-08-07T00:17:28;4.80;;;2.90;;
54929;SDS011;40833;53.238;6.576;2023-08-07T00:19:54;5.60;;;3.03;;
54929;SDS011;40833;53.238;6.576;2023-08-07T00:22:20;9.50;;;2.57;;
54929;SDS011;40833;53.238;6.576;2023-08-07T00:24:46;6.90;;;1.80;;
54929;SDS011;40833;53.238;6.576;2023-08-07T00:27:11;6.70;;;2.20;;
54929;SDS011;40833;53.238;6.576;2023-08-07T00:29:40;4.67;;;1.43;;
54929;SDS011;40833;53.238;6.576;2023-08-07T00:32:06;6.33;;;2.00;;
54929;SDS011;40833;53.238;6.576;2023-08-07T00:34:32;4.93;;;1.60;;
54929;SDS011;40833;53.238;6.576;2023-08-07T00:36:58;4.17;;;1.53;;
54929;SDS011;40833;53.238;6.576;2023-08-07T00:39:24;2.83;;;1.50;;
54929;SDS011;40833;53.238;6.576;2023-08-07T00:41:49;4.43;;;1.23;;
54929;SDS011;40833;53.238;6.576;2023-08-07T00:44:15;4.53;;;1.20;;
54929;SDS011;40833;53.238;6.576;2023-08-07T00:46:41;1.97;;;1.23;;
54929;SDS011;40833;53.238;6.576;2023-08-07T00:49:07;4.73;;;1.27;;
54929;SDS011;40833;53.238;6.576;2023-08-07T00:51:35;5.60;;;1.47;;
54929;SDS011;40833;53.238;6.576;2023-08-07T00:54:02;4.20;;;1.50;;
54929;SDS011;40833;53.238;6.576;2023-08-07T00:56:30;4.17;;;1.40;;
54929;SDS011;40833;53.238;6.576;2023-08-07T00:58:57;3.27;;;1.50;;
54929;SDS011;40833;53.238;6.576;2023-08-07T01:01:24;8.03;;;2.47;;
54929;SDS011;40833;53.238;6.576;2023-08-07T01:03:50;3.30;;;1.37;;
54929;SDS011;40833;53.238;6.576;2023-08-07T01:06:16;9.47;;;1.47;;
54929;SDS011;40833;53.238;6.576;2023-08-07T01:08:42;9.17;;;1.60;;
54929;SDS011;40833;53.238;6.576;2023-08-07T01:14:00;2.37;;;1.80;;
54929;SDS011;40833;53.238;6.576;2023-08-07T01:16:48;6.33;;;2.20;;
54929;SDS011;40833;53.238;6.576;2023-08-07T01:19:23;5.20;;;1.60;;
54929;SDS011;40833;53.238;6.576;2023-08-07T01:22:10;4.17;;;1.90;;
54929;SDS011;40833;53.238;6.576;2023-08-07T01:24:37;11.20;;;2.23;;
54929;SDS011;40833;53.238;6.576;2023-08-07T01:29:41;6.60;;;2.10;;
54929;SDS011;40833;53.238;6.576;2023-08-07T01:32:19;8.50;;;2.00;;
54929;SDS011;40833;53.238;6.576;2023-08-07T01:34:51;5.77;;;1.70;;
54929;SDS011;40833;53.238;6.576;2023-08-07T01:37:18;4.53;;;1.90;;
54929;SDS011;40833;53.238;6.576;2023-08-07T01:39:45;3.20;;;1.53;;
54929;SDS011;40833;53.238;6.576;2023-08-07T01:42:12;2.83;;;1.67;;
54929;SDS011;40833;53.238;6.576;2023-08-07T01:44:38;6.30;;;1.43;;
54929;SDS011;40833;53.238;6.576;2023-08-07T01:47:04;7.57;;;1.90;;
54929;SDS011;40833;53.238;6.576;2023-08-07T01:49:30;4.50;;;2.10;;
54929;SDS011;40833;53.238;6.576;2023-08-07T01:51:55;6.57;;;2.17;;
54929;SDS011;40833;53.238;6.576;2023-08-07T01:54:21;7.33;;;2.07;;
54929;SDS011;40833;53.238;6.576;2023-08-07T01:56:47;5.20;;;2.13;;
54929;SDS011;40833;53.238;6.576;2023-08-07T01:59:12;4.53;;;2.40;;
54929;SDS011;40833;53.238;6.576;2023-08-07T02:01:38;8.07;;;3.07;;
54929;SDS011;40833;53.238;6.576;2023-08-07T02:04:03;5.73;;;2.10;;
54929;SDS011;40833;53.238;6.576;2023-08-07T02:06:29;4.13;;;2.50;;
54929;SDS011;40833;53.238;6.576;2023-08-07T02:08:55;4.97;;;2.50;;
54929;SDS011;40833;53.238;6.576;2023-08-07T02:11:21;5.90;;;2.70;;
54929;SDS011;40833;53.238;6.576;2023-08-07T02:13:46;4.40;;;2.63;;
54929;SDS011;40833;53.238;6.576;2023-08-07T02:16:12;4.60;;;2.60;;
54929;SDS011;40833;53.238;6.576;2023-08-07T02:18:38;7.23;;;2.60;;
54929;SDS011;40833;53.238;6.576;2023-08-07T02:21:03;7.97;;;2.93;;
54929;SDS011;40833;53.238;6.576;2023-08-07T02:23:29;8.90;;;2.47;;
54929;SDS011;40833;53.238;6.576;2023-08-07T02:25:55;13.87;;;2.77;;
54929;SDS011;40833;53.238;6.576;2023-08-07T02:28:20;8.50;;;2.50;;
54929;SDS011;40833;53.238;6.576;2023-08-07T02:30:46;10.47;;;2.90;;
54929;SDS011;40833;53.238;6.576;2023-08-07T02:33:14;7.90;;;2.60;;
54929;SDS011;40833;53.238;6.576;2023-08-07T02:35:39;8.73;;;2.60;;
54929;SDS011;40833;53.238;6.576;2023-08-07T02:38:05;10.53;;;2.53;;
54929;SDS011;40833;53.238;6.576;2023-08-07T02:40:31;15.10;;;3.30;;
54929;SDS011;40833;53.238;6.576;2023-08-07T02:42:56;13.30;;;2.90;;
54929;SDS011;40833;53.238;6.576;2023-08-07T02:45:22;13.57;;;3.67;;
54929;SDS011;40833;53.238;6.576;2023-08-07T02:47:48;9.77;;;2.80;;
54929;SDS011;40833;53.238;6.576;2023-08-07T02:50:13;12.17;;;2.93;;
54929;SDS011;40833;53.238;6.576;2023-08-07T02:52:39;15.70;;;2.83;;
54929;SDS011;40833;53.238;6.576;2023-08-07T02:55:05;8.37;;;2.70;;
54929;SDS011;40833;53.238;6.576;2023-08-07T02:57:30;12.10;;;2.67;;
54929;SDS011;40833;53.238;6.576;2023-08-07T02:59:56;10.57;;;2.87;;
54929;SDS011;40833;53.238;6.576;2023-08-07T03:02:22;14.30;;;2.87;;
54929;SDS011;40833;53.238;6.576;2023-08-07T03:04:47;10.97;;;2.63;;
54929;SDS011;40833;53.238;6.576;2023-08-07T03:07:13;10.83;;;2.63;;
54929;SDS011;40833;53.238;6.576;2023-08-07T03:09:39;9.47;;;2.60;;
54929;SDS011;40833;53.238;6.576;2023-08-07T03:12:04;7.17;;;2.40;;
54929;SDS011;40833;53.238;6.576;2023-08-07T03:14:30;10.73;;;2.80;;
54929;SDS011;40833;53.238;6.576;2023-08-07T03:16:56;14.67;;;3.03;;
54929;SDS011;40833;53.238;6.576;2023-08-07T03:19:22;6.57;;;2.30;;
54929;SDS011;40833;53.238;6.576;2023-08-07T03:21:47;12.90;;;2.50;;
54929;SDS011;40833;53.238;6.576;2023-08-07T03:24:13;12.00;;;2.33;;
54929;SDS011;40833;53.238;6.576;2023-08-07T03:26:39;9.70;;;2.23;;
54929;SDS011;40833;53.238;6.576;2023-08-07T03:29:05;6.97;;;1.70;;
54929;SDS011;40833;53.238;6.576;2023-08-07T03:31:31;9.80;;;1.87;;
54929;SDS011;40833;53.238;6.576;2023-08-07T03:33:56;9.77;;;1.57;;
54929;SDS011;40833;53.238;6.576;2023-08-07T03:36:23;16.27;;;1.50;;
54929;SDS011;40833;53.238;6.576;2023-08-07T03:38:49;8.80;;;1.27;;
54929;SDS011;40833;53.238;6.576;2023-08-07T03:41:15;9.53;;;1.50;;
54929;SDS011;40833;53.238;6.576;2023-08-07T03:43:40;10.70;;;1.07;;
54929;SDS011;40833;53.238;6.576;2023-08-07T03:46:06;12.43;;;1.50;;
54929;SDS011;40833;53.238;6.576;2023-08-07T03:48:32;21.73;;;1.70;;
54929;SDS011;40833;53.238;6.576;2023-08-07T03:51:04;14.83;;;1.80;;
54929;SDS011;40833;53.238;6.576;2023-08-07T03:53:33;10.83;;;2.17;;
54929;SDS011;40833;53.238;6.576;2023-08-07T03:55:58;10.90;;;1.87;;
54929;SDS011;40833;53.238;6.576;2023-08-07T03:58:24;8.17;;;1.73;;
54929;SDS011;40833;53.238;6.576;2023-08-07T04:00:50;11.60;;;2.77;;
54929;SDS011;40833;53.238;6.576;2023-08-07T04:03:17;17.03;;;2.70;;
54929;SDS011;40833;53.238;6.576;2023-08-07T04:05:43;15.17;;;2.70;;
54929;SDS011;40833;53.238;6.576;2023-08-07T04:08:09;16.67;;;3.40;;
54929;SDS011;40833;53.238;6.576;2023-08-07T04:10:35;23.53;;;3.50;;
54929;SDS011;40833;53.238;6.576;2023-08-07T04:13:00;23.20;;;2.43;;
54929;SDS011;40833;53.238;6.576;2023-08-07T04:15:26;18.23;;;3.00;;
54929;SDS011;40833;53.238;6.576;2023-08-07T04:17:51;17.40;;;2.67;;
54929;SDS011;40833;53.238;6.576;2023-08-07T04:20:17;25.50;;;3.47;;
54929;SDS011;40833;53.238;6.576;2023-08-07T04:22:45;29.57;;;3.57;;
54929;SDS011;40833;53.238;6.576;2023-08-07T04:25:11;21.47;;;3.93;;
54929;SDS011;40833;53.238;6.576;2023-08-07T04:27:37;19.63;;;3.53;;
54929;SDS011;40833;53.238;6.576;2023-08-07T04:30:04;24.63;;;3.77;;
54929;SDS011;40833;53.238;6.576;2023-08-07T04:32:33;22.00;;;3.30;;
54929;SDS011;40833;53.238;6.576;2023-08-07T04:34:58;24.53;;;3.63;;
54929;SDS011;40833;53.238;6.576;2023-08-07T04:37:24;22.50;;;3.80;;
54929;SDS011;40833;53.238;6.576;2023-08-07T04:39:50;24.97;;;3.43;;
54929;SDS011;40833;53.238;6.576;2023-08-07T04:42:15;23.60;;;3.10;;
54929;SDS011;40833;53.238;6.576;2023-08-07T04:44:41;19.87;;;2.37;;
54929;SDS011;40833;53.238;6.576;2023-08-07T04:47:07;17.23;;;2.70;;
54929;SDS011;40833;53.238;6.576;2023-08-07T04:49:32;8.93;;;2.33;;
54929;SDS011;40833;53.238;6.576;2023-08-07T04:51:58;11.80;;;2.23;;
54929;SDS011;40833;53.238;6.576;2023-08-07T04:54:24;18.67;;;4.17;;
54929;SDS011;40833;53.238;6.576;2023-08-07T04:56:49;18.33;;;3.00;;
54929;SDS011;40833;53.238;6.576;2023-08-07T04:59:15;16.77;;;2.87;;
54929;SDS011;40833;53.238;6.576;2023-08-07T05:01:40;14.47;;;2.40;;
54929;SDS011;40833;53.238;6.576;2023-08-07T05:04:06;12.67;;;2.30;;
54929;SDS011;40833;53.238;6.576;2023-08-07T05:06:32;20.17;;;2.90;;
54929;SDS011;40833;53.238;6.576;2023-08-07T05:08:57;13.47;;;2.23;;
54929;SDS011;40833;53.238;6.576;2023-08-07T05:11:23;15.77;;;2.37;;
54929;SDS011;40833;53.238;6.576;2023-08-07T05:13:49;18.10;;;2.70;;
54929;SDS011;40833;53.238;6.576;2023-08-07T05:16:14;17.57;;;2.67;;
54929;SDS011;40833;53.238;6.576;2023-08-07T05:18:41;21.23;;;3.57;;
54929;SDS011;40833;53.238;6.576;2023-08-07T05:21:06;17.60;;;3.03;;
54929;SDS011;40833;53.238;6.576;2023-08-07T05:23:33;18.93;;;3.63;;
54929;SDS011;40833;53.238;6.576;2023-08-07T05:25:59;19.63;;;3.20;;
54929;SDS011;40833;53.238;6.576;2023-08-07T05:28:25;14.77;;;3.00;;
54929;SDS011;40833;53.238;6.576;2023-08-07T05:30:50;20.37;;;2.47;;
54929;SDS011;40833;53.238;6.576;2023-08-07T05:33:16;15.53;;;2.70;;
54929;SDS011;40833;53.238;6.576;2023-08-07T05:35:42;25.00;;;3.60;;
54929;SDS011;40833;53.238;6.576;2023-08-07T05:38:07;17.20;;;3.03;;
54929;SDS011;40833;53.238;6.576;2023-08-07T05:40:33;13.90;;;2.50;;
54929;SDS011;40833;53.238;6.576;2023-08-07T05:43:01;18.37;;;3.77;;
54929;SDS011;40833;53.238;6.576;2023-08-07T05:45:27;23.03;;;2.50;;
54929;SDS011;40833;53.238;6.576;2023-08-07T05:47:53;18.63;;;3.17;;
54929;SDS011;40833;53.238;6.576;2023-08-07T05:50:19;11.97;;;2.43;;
54929;SDS011;40833;53.238;6.576;2023-08-07T05:52:45;15.53;;;2.67;;
54929;SDS011;40833;53.238;6.576;2023-08-07T05:55:10;15.73;;;2.10;;
54929;SDS011;40833;53.238;6.576;2023-08-07T05:57:36;20.73;;;3.53;;
54929;SDS011;40833;53.238;6.576;2023-08-07T06:00:02;12.30;;;2.47;;
54929;SDS011;40833;53.238;6.576;2023-08-07T06:02:28;11.53;;;1.83;;
54929;SDS011;40833;53.238;6.576;2023-08-07T06:04:54;11.33;;;2.10;;
54929;SDS011;40833;53.238;6.576;2023-08-07T06:07:19;18.87;;;3.27;;
54929;SDS011;40833;53.238;6.576;2023-08-07T06:09:45;15.93;;;2.47;;
54929;SDS011;40833;53.238;6.576;2023-08-07T06:12:11;9.47;;;1.63;;
54929;SDS011;40833;53.238;6.576;2023-08-07T06:14:37;15.73;;;2.37;;
54929;SDS011;40833;53.238;6.576;2023-08-07T06:17:03;10.83;;;1.43;;
54929;SDS011;40833;53.238;6.576;2023-08-07T06:19:29;9.00;;;1.67;;
54929;SDS011;40833;53.238;6.576;2023-08-07T06:21:55;13.43;;;1.43;;
54929;SDS011;40833;53.238;6.576;2023-08-07T06:24:21;10.07;;;1.40;;
54929;SDS011;40833;53.238;6.576;2023-08-07T06:26:47;15.17;;;1.57;;
54929;SDS011;40833;53.238;6.576;2023-08-07T06:29:12;16.17;;;1.47;;
54929;SDS011;40833;53.238;6.576;2023-08-07T06:31:38;12.23;;;1.30;;
54929;SDS011;40833;53.238;6.576;2023-08-07T06:34:04;17.87;;;1.93;;
54929;SDS011;40833;53.238;6.576;2023-08-07T06:36:29;11.47;;;1.70;;
54929;SDS011;40833;53.238;6.576;2023-08-07T06:38:55;13.63;;;1.63;;
54929;SDS011;40833;53.238;6.576;2023-08-07T06:41:21;6.17;;;1.00;;
54929;SDS011;40833;53.238;6.576;2023-08-07T06:43:46;11.60;;;1.27;;
54929;SDS011;40833;53.238;6.576;2023-08-07T06:46:12;9.90;;;1.87;;
54929;SDS011;40833;53.238;6.576;2023-08-07T06:48:38;10.83;;;2.17;;
54929;SDS011;40833;53.238;6.576;2023-08-07T06:51:03;13.93;;;1.60;;
54929;SDS011;40833;53.238;6.576;2023-08-07T06:53:29;11.43;;;2.17;;
54929;SDS011;40833;53.238;6.576;2023-08-07T06:55:55;10.67;;;1.90;;
54929;SDS011;40833;53.238;6.576;2023-08-07T06:58:20;14.00;;;2.03;;
54929;SDS011;40833;53.238;6.576;2023-08-07T07:00:46;15.10;;;2.00;;
54929;SDS011;40833;53.238;6.576;2023-08-07T07:03:12;20.63;;;2.33;;
54929;SDS011;40833;53.238;6.576;2023-08-07T07:05:37;12.20;;;1.73;;
54929;SDS011;40833;53.238;6.576;2023-08-07T07:08:03;11.70;;;2.23;;
54929;SDS011;40833;53.238;6.576;2023-08-07T07:10:29;13.37;;;2.17;;
54929;SDS011;40833;53.238;6.576;2023-08-07T07:12:55;16.97;;;2.53;;
54929;SDS011;40833;53.238;6.576;2023-08-07T07:15:20;7.47;;;1.43;;
54929;SDS011;40833;53.238;6.576;2023-08-07T07:17:46;12.87;;;1.90;;
54929;SDS011;40833;53.238;6.576;2023-08-07T07:20:12;14.73;;;2.47;;
54929;SDS011;40833;53.238;6.576;2023-08-07T07:22:38;16.80;;;1.93;;
54929;SDS011;40833;53.238;6.576;2023-08-07T07:25:03;13.10;;;1.90;;
54929;SDS011;40833;53.238;6.576;2023-08-07T07:27:29;14.40;;;1.97;;
54929;SDS011;40833;53.238;6.576;2023-08-07T07:29:55;12.90;;;1.83;;
54929;SDS011;40833;53.238;6.576;2023-08-07T07:32:21;14.47;;;1.93;;
54929;SDS011;40833;53.238;6.576;2023-08-07T07:34:46;11.73;;;1.63;;
54929;SDS011;40833;53.238;6.576;2023-08-07T07:37:13;9.93;;;1.70;;
54929;SDS011;40833;53.238;6.576;2023-08-07T07:39:40;15.33;;;2.07;;
54929;SDS011;40833;53.238;6.576;2023-08-07T07:42:06;16.83;;;2.10;;
54929;SDS011;40833;53.238;6.576;2023-08-07T07:44:32;14.17;;;2.00;;
54929;SDS011;40833;53.238;6.576;2023-08-07T07:47:00;11.17;;;2.00;;
54929;SDS011;40833;53.238;6.576;2023-08-07T07:49:26;11.87;;;3.00;;
54929;SDS011;40833;53.238;6.576;2023-08-07T07:51:51;11.63;;;1.70;;
54929;SDS011;40833;53.238;6.576;2023-08-07T07:54:17;11.17;;;1.80;;
54929;SDS011;40833;53.238;6.576;2023-08-07T07:56:43;16.70;;;1.90;;
54929;SDS011;40833;53.238;6.576;2023-08-07T07:59:08;11.97;;;2.50;;
54929;SDS011;40833;53.238;6.576;2023-08-07T08:01:34;8.10;;;1.73;;
54929;SDS011;40833;53.238;6.576;2023-08-07T08:04:00;12.57;;;1.70;;
54929;SDS011;40833;53.238;6.576;2023-08-07T08:06:26;10.33;;;1.53;;
54929;SDS011;40833;53.238;6.576;2023-08-07T08:08:52;7.13;;;1.80;;
54929;SDS011;40833;53.238;6.576;2023-08-07T08:11:17;9.30;;;1.87;;
54929;SDS011;40833;53.238;6.576;2023-08-07T08:13:43;16.33;;;2.87;;
54929;SDS011;40833;53.238;6.576;2023-08-07T08:16:09;11.20;;;2.83;;
54929;SDS011;40833;53.238;6.576;2023-08-07T08:18:34;14.97;;;2.27;;
54929;SDS011;40833;53.238;6.576;2023-08-07T08:21:00;9.90;;;1.83;;
54929;SDS011;40833;53.238;6.576;2023-08-07T08:23:26;12.37;;;2.60;;
54929;SDS011;40833;53.238;6.576;2023-08-07T08:25:51;7.83;;;1.87;;
54929;SDS011;40833;53.238;6.576;2023-08-07T08:28:17;12.60;;;1.60;;
54929;SDS011;40833;53.238;6.576;2023-08-07T08:30:43;14.77;;;2.77;;
54929;SDS011;40833;53.238;6.576;2023-08-07T08:33:09;8.53;;;1.60;;
54929;SDS011;40833;53.238;6.576;2023-08-07T08:35:37;10.00;;;1.47;;
54929;SDS011;40833;53.238;6.576;2023-08-07T08:38:03;7.37;;;1.60;;
54929;SDS011;40833;53.238;6.576;2023-08-07T08:40:30;6.50;;;1.50;;
54929;SDS011;40833;53.238;6.576;2023-08-07T08:42:56;8.27;;;1.63;;
54929;SDS011;40833;53.238;6.576;2023-08-07T08:45:25;13.27;;;2.00;;
54929;SDS011;40833;53.238;6.576;2023-08-07T08:48:00;11.70;;;2.03;;
54929;SDS011;40833;53.238;6.576;2023-08-07T08:50:28;13.73;;;1.80;;
54929;SDS011;40833;53.238;6.576;2023-08-07T08:52:55;10.53;;;1.20;;
54929;SDS011;40833;53.238;6.576;2023-08-07T08:55:21;8.37;;;1.10;;
54929;SDS011;40833;53.238;6.576;2023-08-07T08:57:48;10.57;;;1.10;;
54929;SDS011;40833;53.238;6.576;2023-08-07T09:00:15;8.20;;;1.40;;
54929;SDS011;40833;53.238;6.576;2023-08-07T09:02:46;9.80;;;1.53;;
54929;SDS011;40833;53.238;6.576;2023-08-07T09:05:15;11.80;;;1.60;;
54929;SDS011;40833;53.238;6.576;2023-08-07T09:07:42;13.27;;;1.70;;
54929;SDS011;40833;53.238;6.576;2023-08-07T09:10:11;10.27;;;1.70;;
54929;SDS011;40833;53.238;6.576;2023-08-07T09:13:23;8.20;;;1.30;;
54929;SDS011;40833;53.238;6.576;2023-08-07T09:15:25;7.50;;;1.40;;
54929;SDS011;40833;53.238;6.576;2023-08-07T09:17:53;15.40;;;3.50;;
54929;SDS011;40833;53.238;6.576;2023-08-07T09:20:20;13.13;;;1.23;;
54929;SDS011;40833;53.238;6.576;2023-08-07T09:22:47;13.47;;;2.37;;
54929;SDS011;40833;53.238;6.576;2023-08-07T09:25:14;5.63;;;1.00;;
54929;SDS011;40833;53.238;6.576;2023-08-07T09:27:39;7.90;;;1.30;;
54929;SDS011;40833;53.238;6.576;2023-08-07T09:30:06;12.00;;;1.63;;
54929;SDS011;40833;53.238;6.576;2023-08-07T09:32:34;8.97;;;1.60;;
54929;SDS011;40833;53.238;6.576;2023-08-07T09:35:02;12.83;;;2.90;;
54929;SDS011;40833;53.238;6.576;2023-08-07T09:37:29;8.47;;;1.80;;
54929;SDS011;40833;53.238;6.576;2023-08-07T09:39:55;15.40;;;2.30;;
54929;SDS011;40833;53.238;6.576;2023-08-07T09:42:20;10.47;;;1.57;;
54929;SDS011;40833;53.238;6.576;2023-08-07T09:44:46;10.53;;;1.43;;
54929;SDS011;40833;53.238;6.576;2023-08-07T09:47:14;9.53;;;1.60;;
54929;SDS011;40833;53.238;6.576;2023-08-07T09:49:42;11.50;;;1.50;;
54929;SDS011;40833;53.238;6.576;2023-08-07T09:52:10;5.67;;;1.57;;
54929;SDS011;40833;53.238;6.576;2023-08-07T09:54:38;6.93;;;1.00;;
54929;SDS011;40833;53.238;6.576;2023-08-07T09:57:04;9.57;;;1.20;;
54929;SDS011;40833;53.238;6.576;2023-08-07T09:59:33;14.13;;;2.17;;
54929;SDS011;40833;53.238;6.576;2023-08-07T10:02:03;12.80;;;1.30;;
54929;SDS011;40833;53.238;6.576;2023-08-07T10:04:29;10.53;;;1.63;;
54929;SDS011;40833;53.238;6.576;2023-08-07T10:06:56;16.47;;;2.53;;
54929;SDS011;40833;53.238;6.576;2023-08-07T10:09:22;10.50;;;1.87;;
54929;SDS011;40833;53.238;6.576;2023-08-07T10:11:48;9.67;;;1.80;;
54929;SDS011;40833;53.238;6.576;2023-08-07T10:14:15;10.27;;;1.50;;
54929;SDS011;40833;53.238;6.576;2023-08-07T10:16:41;10.47;;;2.03;;
54929;SDS011;40833;53.238;6.576;2023-08-07T10:19:08;11.57;;;2.37;;
54929;SDS011;40833;53.238;6.576;2023-08-07T10:21:38;12.03;;;1.50;;
54929;SDS011;40833;53.238;6.576;2023-08-07T10:24:05;11.80;;;1.97;;
54929;SDS011;40833;53.238;6.576;2023-08-07T10:26:35;19.07;;;2.20;;
54929;SDS011;40833;53.238;6.576;2023-08-07T10:29:06;12.83;;;2.83;;
54929;SDS011;40833;53.238;6.576;2023-08-07T10:31:35;12.80;;;1.57;;
54929;SDS011;40833;53.238;6.576;2023-08-07T10:34:03;11.03;;;1.83;;
54929;SDS011;40833;53.238;6.576;2023-08-07T10:36:32;7.63;;;1.60;;
54929;SDS011;40833;53.238;6.576;2023-08-07T10:39:06;9.95;;;1.60;;
54929;SDS011;40833;53.238;6.576;2023-08-07T10:41:39;11.67;;;1.57;;
54929;SDS011;40833;53.238;6.576;2023-08-07T10:44:18;10.00;;;1.10;;
54929;SDS011;40833;53.238;6.576;2023-08-07T10:46:54;12.60;;;1.38;;
54929;SDS011;40833;53.238;6.576;2023-08-07T10:49:30;6.73;;;1.03;;
54929;SDS011;40833;53.238;6.576;2023-08-07T10:52:09;5.67;;;1.30;;
54929;SDS011;40833;53.238;6.576;2023-08-07T10:59:48;8.23;;;1.05;;
54929;SDS011;40833;53.238;6.576;2023-08-07T11:02:22;10.17;;;1.10;;
54929;SDS011;40833;53.238;6.576;2023-08-07T11:04:51;12.88;;;1.20;;
54929;SDS011;40833;53.238;6.576;2023-08-07T11:07:27;7.90;;;1.17;;
54929;SDS011;40833;53.238;6.576;2023-08-07T11:09:55;6.15;;;0.82;;
54929;SDS011;40833;53.238;6.576;2023-08-07T11:12:28;20.63;;;1.30;;
54929;SDS011;40833;53.238;6.576;2023-08-07T11:14:54;5.45;;;1.30;;
54929;SDS011;40833;53.238;6.576;2023-08-07T11:17:27;10.25;;;1.40;;
54929;SDS011;40833;53.238;6.576;2023-08-07T11:19:55;7.22;;;1.10;;
54929;SDS011;40833;53.238;6.576;2023-08-07T11:22:21;4.10;;;0.93;;
54929;SDS011;40833;53.238;6.576;2023-08-07T11:24:47;10.00;;;1.38;;
54929;SDS011;40833;53.238;6.576;2023-08-07T11:27:14;11.75;;;1.20;;
54929;SDS011;40833;53.238;6.576;2023-08-07T11:29:39;12.98;;;1.58;;
54929;SDS011;40833;53.238;6.576;2023-08-07T11:32:05;7.03;;;1.53;;
54929;SDS011;40833;53.238;6.576;2023-08-07T11:34:31;9.73;;;1.33;;
54929;SDS011;40833;53.238;6.576;2023-08-07T11:36:57;5.33;;;1.13;;
54929;SDS011;40833;53.238;6.576;2023-08-07T11:39:23;10.90;;;1.33;;
54929;SDS011;40833;53.238;6.576;2023-08-07T11:41:50;5.93;;;1.17;;
54929;SDS011;40833;53.238;6.576;2023-08-07T11:44:17;11.83;;;1.40;;
54929;SDS011;40833;53.238;6.576;2023-08-07T11:46:43;7.45;;;1.58;;
54929;SDS011;40833;53.238;6.576;2023-08-07T11:49:09;6.50;;;1.40;;
54929;SDS011;40833;53.238;6.576;2023-08-07T11:51:36;3.55;;;0.60;;
54929;SDS011;40833;53.238;6.576;2023-08-07T11:54:02;4.15;;;0.43;;
54929;SDS011;40833;53.238;6.576;2023-08-07T11:56:28;2.85;;;0.38;;
54929;SDS011;40833;53.238;6.576;2023-08-07T11:58:54;4.65;;;0.52;;
54929;SDS011;40833;53.238;6.576;2023-08-07T12:01:22;3.00;;;0.57;;
54929;SDS011;40833;53.238;6.576;2023-08-07T12:03:53;6.00;;;0.65;;
54929;SDS011;40833;53.238;6.576;2023-08-07T12:06:33;5.45;;;0.93;;
54929;SDS011;40833;53.238;6.576;2023-08-07T12:09:00;5.00;;;1.10;;
54929;SDS011;40833;53.238;6.576;2023-08-07T12:11:28;10.10;;;1.30;;
54929;SDS011;40833;53.238;6.576;2023-08-07T12:13:54;9.60;;;2.08;;
54929;SDS011;40833;53.238;6.576;2023-08-07T12:16:20;7.88;;;1.60;;
54929;SDS011;40833;53.238;6.576;2023-08-07T12:18:47;7.35;;;0.57;;
54929;SDS011;40833;53.238;6.576;2023-08-07T12:21:15;8.85;;;0.68;;
54929;SDS011;40833;53.238;6.576;2023-08-07T12:23:45;6.60;;;1.30;;
54929;SDS011;40833;53.238;6.576;2023-08-07T12:26:14;3.80;;;0.60;;
54929;SDS011;40833;53.238;6.576;2023-08-07T12:28:40;4.28;;;0.60;;
54929;SDS011;40833;53.238;6.576;2023-08-07T12:31:06;3.40;;;0.80;;
54929;SDS011;40833;53.238;6.576;2023-08-07T12:33:32;6.10;;;1.10;;
54929;SDS011;40833;53.238;6.576;2023-08-07T12:35:58;7.88;;;1.15;;
54929;SDS011;40833;53.238;6.576;2023-08-07T12:38:25;8.80;;;1.35;;
54929;SDS011;40833;53.238;6.576;2023-08-07T12:40:51;9.88;;;1.27;;
54929;SDS011;40833;53.238;6.576;2023-08-07T12:43:17;11.45;;;1.40;;
54929;SDS011;40833;53.238;6.576;2023-08-07T12:45:42;7.88;;;1.15;;
54929;SDS011;40833;53.238;6.576;2023-08-07T12:48:08;7.28;;;1.30;;
54929;SDS011;40833;53.238;6.576;2023-08-07T12:50:34;7.15;;;1.00;;
54929;SDS011;40833;53.238;6.576;2023-08-07T12:53:01;10.43;;;1.23;;
54929;SDS011;40833;53.238;6.576;2023-08-07T12:55:26;7.15;;;1.38;;
54929;SDS011;40833;53.238;6.576;2023-08-07T12:57:53;8.20;;;1.00;;
54929;SDS011;40833;53.238;6.576;2023-08-07T13:00:19;7.85;;;1.20;;
54929;SDS011;40833;53.238;6.576;2023-08-07T13:02:46;8.70;;;1.63;;
54929;SDS011;40833;53.238;6.576;2023-08-07T13:05:13;8.02;;;1.00;;
54929;SDS011;40833;53.238;6.576;2023-08-07T13:07:40;4.30;;;1.52;;
54929;SDS011;40833;53.238;6.576;2023-08-07T13:10:06;8.55;;;1.38;;
54929;SDS011;40833;53.238;6.576;2023-08-07T13:12:38;8.70;;;2.63;;
54929;SDS011;40833;53.238;6.576;2023-08-07T13:15:05;5.18;;;1.55;;
54929;SDS011;40833;53.238;6.576;2023-08-07T13:17:37;7.90;;;1.60;;
54929;SDS011;40833;53.238;6.576;2023-08-07T13:20:03;9.90;;;1.60;;
54929;SDS011;40833;53.238;6.576;2023-08-07T13:22:33;13.02;;;1.52;;
54929;SDS011;40833;53.238;6.576;2023-08-07T13:25:00;7.78;;;1.70;;
54929;SDS011;40833;53.238;6.576;2023-08-07T13:27:26;5.40;;;1.38;;
54929;SDS011;40833;53.238;6.576;2023-08-07T13:29:52;10.30;;;1.58;;
54929;SDS011;40833;53.238;6.576;2023-08-07T13:32:17;10.45;;;1.95;;
54929;SDS011;40833;53.238;6.576;2023-08-07T13:34:45;5.60;;;1.40;;
54929;SDS011;40833;53.238;6.576;2023-08-07T13:37:11;4.53;;;1.25;;
54929;SDS011;40833;53.238;6.576;2023-08-07T13:39:36;4.80;;;1.00;;
54929;SDS011;40833;53.238;6.576;2023-08-07T13:42:02;2.83;;;0.85;;
54929;SDS011;40833;53.238;6.576;2023-08-07T13:44:28;5.68;;;1.20;;
54929;SDS011;40833;53.238;6.576;2023-08-07T13:46:54;6.20;;;1.38;;
54929;SDS011;40833;53.238;6.576;2023-08-07T13:49:21;12.88;;;1.55;;
54929;SDS011;40833;53.238;6.576;2023-08-07T13:51:48;6.75;;;1.60;;
54929;SDS011;40833;53.238;6.576;2023-08-07T13:54:14;12.25;;;1.70;;
54929;SDS011;40833;53.238;6.576;2023-08-07T13:56:40;15.10;;;1.88;;
54929;SDS011;40833;53.238;6.576;2023-08-07T13:59:06;10.23;;;1.75;;
54929;SDS011;40833;53.238;6.576;2023-08-07T14:01:32;5.03;;;1.30;;
54929;SDS011;40833;53.238;6.576;2023-08-07T14:03:59;10.55;;;1.65;;
54929;SDS011;40833;53.238;6.576;2023-08-07T14:06:26;9.05;;;1.60;;
54929;SDS011;40833;53.238;6.576;2023-08-07T14:08:52;8.65;;;1.45;;
54929;SDS011;40833;53.238;6.576;2023-08-07T14:11:17;8.23;;;1.60;;
54929;SDS011;40833;53.238;6.576;2023-08-07T14:13:44;6.55;;;1.83;;
54929;SDS011;40833;53.238;6.576;2023-08-07T14:16:11;9.27;;;1.23;;
54929;SDS011;40833;53.238;6.576;2023-08-07T14:18:37;8.25;;;1.80;;
54929;SDS011;40833;53.238;6.576;2023-08-07T14:21:03;9.90;;;1.52;;
54929;SDS011;40833;53.238;6.576;2023-08-07T14:23:29;5.78;;;1.40;;
54929;SDS011;40833;53.238;6.576;2023-08-07T14:25:55;6.47;;;1.60;;
54929;SDS011;40833;53.238;6.576;2023-08-07T14:28:21;6.13;;;1.10;;
54929;SDS011;40833;53.238;6.576;2023-08-07T14:30:47;6.97;;;1.10;;
54929;SDS011;40833;53.238;6.576;2023-08-07T14:33:12;8.77;;;1.90;;
54929;SDS011;40833;53.238;6.576;2023-08-07T14:35:38;5.32;;;1.08;;
54929;SDS011;40833;53.238;6.576;2023-08-07T14:38:04;7.75;;;1.38;;
54929;SDS011;40833;53.238;6.576;2023-08-07T14:40:30;6.90;;;1.15;;
54929;SDS011;40833;53.238;6.576;2023-08-07T14:42:55;5.63;;;0.85;;
54929;SDS011;40833;53.238;6.576;2023-08-07T14:45:21;5.57;;;1.13;;
54929;SDS011;40833;53.238;6.576;2023-08-07T14:47:48;8.60;;;1.42;;